createdAt,value
2023-05-19T00:01:00.574Z,94.10
2023-05-19T00:03:28.130Z,94.20
2023-05-19T00:05:57.205Z,94.40
2023-05-19T00:08:27.106Z,94.70
2023-05-19T00:10:54.489Z,94.40
2023-05-19T00:13:23.416Z,94.20
2023-05-19T00:15:51.157Z,94.30
2023-05-19T00:18:18.251Z,93.90
2023-05-19T00:20:49.791Z,93.90
2023-05-19T00:23:16.830Z,94.30
2023-05-19T00:25:43.937Z,94.10
2023-05-19T00:28:11.003Z,93.90
2023-05-19T00:30:38.113Z,93.90
2023-05-19T00:33:05.430Z,94.40
2023-05-19T00:35:34.788Z,93.90
2023-05-19T00:38:02.090Z,93.80
2023-05-19T00:40:31.655Z,94.20
2023-05-19T00:42:59.207Z,94.30
2023-05-19T00:45:26.620Z,94.40
2023-05-19T00:47:54.462Z,94.40
2023-05-19T00:50:28.579Z,95.00
2023-05-19T00:52:56.689Z,94.60
2023-05-19T00:55:31.172Z,94.60
2023-05-19T00:57:58.528Z,94.50
2023-05-19T01:00:26.169Z,95.00
2023-05-19T01:02:54.594Z,94.70
2023-05-19T01:05:22.160Z,94.70
2023-05-19T01:07:53.829Z,94.80
2023-05-19T01:10:30.564Z,94.90
2023-05-19T01:12:58.029Z,95.20
2023-05-19T01:15:27.178Z,95.10
2023-05-19T01:18:19.642Z,95.20
2023-05-19T01:20:56.033Z,95.50
2023-05-19T01:23:41.401Z,95.70
2023-05-19T01:27:01.843Z,95.30
2023-05-19T01:30:07.069Z,95.50
2023-05-19T01:32:34.846Z,95.80
2023-05-19T01:35:04.187Z,95.50
2023-05-19T01:37:32.190Z,95.60
2023-05-19T01:39:59.639Z,96.00
2023-05-19T01:42:28.091Z,96.20
2023-05-19T01:44:55.661Z,96.00
2023-05-19T01:47:25.183Z,96.10
2023-05-19T01:49:52.313Z,96.10
2023-05-19T01:52:19.617Z,96.10
2023-05-19T01:54:50.668Z,96.30
2023-05-19T01:57:48.781Z,96.30
2023-05-19T02:00:41.234Z,96.10
2023-05-19T02:03:08.569Z,96.20
2023-05-19T02:05:39.234Z,96.30
2023-05-19T02:08:14.363Z,96.40
2023-05-19T02:10:49.056Z,96.50
2023-05-19T02:13:21.538Z,96.70
2023-05-19T02:15:50.118Z,97.10
2023-05-19T02:18:19.526Z,97.20
2023-05-19T02:20:46.906Z,97.30
2023-05-19T02:23:19.905Z,97.00
2023-05-19T02:25:47.086Z,97.30
2023-05-19T02:28:14.395Z,97.40
2023-05-19T02:30:43.785Z,97.30
2023-05-19T02:33:11.720Z,97.40
2023-05-19T02:35:38.981Z,97.80
2023-05-19T02:38:07.369Z,97.90
2023-05-19T02:40:34.621Z,98.00
2023-05-19T02:43:07.108Z,98.00
2023-05-19T02:45:34.223Z,98.20
2023-05-19T02:48:01.595Z,98.10
2023-05-19T02:50:28.998Z,98.10
2023-05-19T02:52:56.289Z,98.30
2023-05-19T02:55:29.993Z,98.10
2023-05-19T02:57:57.363Z,98.00
2023-05-19T03:00:24.608Z,98.20
2023-05-19T03:02:55.950Z,98.40
2023-05-19T03:05:23.242Z,98.60
2023-05-19T03:07:50.386Z,98.90
2023-05-19T03:10:24.837Z,99.10
2023-05-19T03:12:52.214Z,99.40
2023-05-19T03:15:24.925Z,99.60
2023-05-19T03:17:53.362Z,99.90
2023-05-19T03:20:20.682Z,99.90
2023-05-19T03:22:48.029Z,99.90
2023-05-19T03:25:15.351Z,99.90
2023-05-19T03:27:42.507Z,99.90
2023-05-19T03:30:16.022Z,99.90
2023-05-19T03:32:43.286Z,99.90
2023-05-19T03:35:10.532Z,99.90
2023-05-19T03:37:37.772Z,99.90
2023-05-19T03:40:05.981Z,99.90
2023-05-19T03:42:33.097Z,99.90
2023-05-19T03:45:00.175Z,99.90
2023-05-19T03:47:27.401Z,99.90
2023-05-19T03:49:54.475Z,99.90
2023-05-19T03:52:21.898Z,99.90
2023-05-19T03:54:49.148Z,99.80
2023-05-19T03:57:16.326Z,99.80
2023-05-19T03:59:44.150Z,99.50
2023-05-19T04:02:20.632Z,99.40
2023-05-19T04:04:47.939Z,99.10
2023-05-19T04:07:15.216Z,99.10
2023-05-19T04:09:57.186Z,99.20
2023-05-19T04:12:24.579Z,98.70
2023-05-19T04:14:51.738Z,98.60
2023-05-19T04:17:19.018Z,98.80
2023-05-19T04:19:46.156Z,98.80
2023-05-19T04:22:19.276Z,98.80
2023-05-19T04:24:46.696Z,98.80
2023-05-19T04:27:13.922Z,98.60
2023-05-19T04:29:41.171Z,98.60
2023-05-19T04:32:08.457Z,98.40
2023-05-19T04:34:35.921Z,98.40
2023-05-19T04:37:16.529Z,98.60
2023-05-19T04:39:45.504Z,98.10
2023-05-19T04:42:13.482Z,97.60
2023-05-19T04:44:42.717Z,97.10
2023-05-19T04:47:10.520Z,97.00
2023-05-19T04:49:40.930Z,96.80
2023-05-19T04:52:11.912Z,96.70
2023-05-19T04:54:40.673Z,96.50
2023-05-19T04:57:10.638Z,96.30
2023-05-19T04:59:37.828Z,96.20
2023-05-19T05:02:06.293Z,96.20
2023-05-19T05:04:33.765Z,96.30
2023-05-19T05:07:00.887Z,96.00
2023-05-19T05:09:46.262Z,96.30
2023-05-19T05:12:14.315Z,96.10
2023-05-19T05:14:43.087Z,95.70
2023-05-19T05:17:30.280Z,95.50
2023-05-19T05:20:00.755Z,94.10
2023-05-19T05:22:33.272Z,91.10
2023-05-19T05:25:08.418Z,87.20
2023-05-19T05:27:40.849Z,84.40
2023-05-19T05:30:13.268Z,81.80
2023-05-19T05:32:41.985Z,83.80
2023-05-19T05:35:22.455Z,84.50
2023-05-19T05:37:54.317Z,82.90
2023-05-19T05:40:31.555Z,79.10
2023-05-19T05:43:06.163Z,76.10
2023-05-19T05:45:40.691Z,74.80
2023-05-19T05:48:11.718Z,73.00
2023-05-19T05:50:53.238Z,68.70
2023-05-19T05:53:29.061Z,64.90
2023-05-19T05:55:57.168Z,65.20
2023-05-19T05:58:25.464Z,65.80
2023-05-19T06:00:53.732Z,69.00
2023-05-19T06:03:24.642Z,72.80
2023-05-19T06:05:56.040Z,77.30
2023-05-19T06:08:23.799Z,80.50
2023-05-19T06:10:51.184Z,84.50
2023-05-19T06:13:22.885Z,87.50
2023-05-19T06:15:51.533Z,89.00
2023-05-19T06:18:19.134Z,90.90
2023-05-19T06:20:46.273Z,90.60
2023-05-19T06:23:13.693Z,91.20
2023-05-19T06:25:41.198Z,92.20
2023-05-19T06:28:10.029Z,93.00
2023-05-19T06:30:37.332Z,91.90
2023-05-19T06:33:05.466Z,92.80
2023-05-19T06:35:39.535Z,91.70
2023-05-19T06:38:08.330Z,91.90
2023-05-19T06:40:40.335Z,92.00
2023-05-19T06:43:07.360Z,91.90
2023-05-19T06:45:34.505Z,91.00
2023-05-19T06:48:01.621Z,92.00
2023-05-19T06:50:28.724Z,91.00
2023-05-19T06:52:57.600Z,90.40
2023-05-19T06:55:25.023Z,90.60
2023-05-19T06:57:52.078Z,90.90
2023-05-19T07:00:20.620Z,91.30
2023-05-19T07:02:50.199Z,90.80
2023-05-19T07:05:17.939Z,90.70
2023-05-19T07:07:44.990Z,90.80
2023-05-19T07:10:12.202Z,91.30
2023-05-19T07:12:39.390Z,91.50
2023-05-19T07:15:06.990Z,91.60
2023-05-19T07:17:34.042Z,90.80
2023-05-19T07:20:01.853Z,90.40
2023-05-19T07:22:29.064Z,91.10
2023-05-19T07:24:57.265Z,91.10
2023-05-19T07:27:24.454Z,91.10
2023-05-19T07:29:51.469Z,91.30
2023-05-19T07:32:18.843Z,92.20
2023-05-19T07:34:45.994Z,92.10
2023-05-19T07:37:13.436Z,92.60
2023-05-19T07:39:40.464Z,91.50
2023-05-19T07:42:07.615Z,92.60
2023-05-19T07:44:34.954Z,92.40
2023-05-19T07:47:02.357Z,92.60
2023-05-19T07:49:29.590Z,92.60
2023-05-19T07:51:57.230Z,92.60
2023-05-19T07:54:24.218Z,93.20
2023-05-19T07:56:51.382Z,93.10
2023-05-19T07:59:18.463Z,93.80
2023-05-19T08:01:45.923Z,94.40
2023-05-19T08:04:13.550Z,93.50
2023-05-19T08:06:42.921Z,93.20
2023-05-19T08:09:10.371Z,93.30
2023-05-19T08:11:37.528Z,93.10
2023-05-19T08:14:07.914Z,92.90
2023-05-19T08:16:34.939Z,92.60
2023-05-19T08:19:04.789Z,93.20
2023-05-19T08:21:34.848Z,92.90
2023-05-19T08:24:02.149Z,93.10
2023-05-19T08:26:29.442Z,92.40
2023-05-19T08:28:56.528Z,91.80
2023-05-19T08:31:25.104Z,92.50
2023-05-19T08:33:52.397Z,91.90
2023-05-19T08:36:19.770Z,92.30
2023-05-19T08:38:46.868Z,90.70
2023-05-19T08:41:13.912Z,92.20
2023-05-19T08:43:41.074Z,90.70
2023-05-19T08:46:08.413Z,91.20
2023-05-19T08:48:39.621Z,91.90
2023-05-19T08:51:42.013Z,91.90
2023-05-19T08:54:16.058Z,91.20
2023-05-19T08:56:45.727Z,91.70
2023-05-19T08:59:15.309Z,91.60
2023-05-19T09:01:46.174Z,90.50
2023-05-19T09:04:14.209Z,90.30
2023-05-19T09:06:42.513Z,90.70
2023-05-19T09:09:09.748Z,90.20
2023-05-19T09:11:37.904Z,90.60
2023-05-19T09:14:05.838Z,90.70
2023-05-19T09:16:34.253Z,88.50
2023-05-19T09:19:01.566Z,84.70
2023-05-19T09:21:32.059Z,86.20
2023-05-19T09:24:09.871Z,85.90
2023-05-19T09:26:42.088Z,86.50
2023-05-19T09:29:16.135Z,87.10
2023-05-19T09:31:51.251Z,87.20
2023-05-19T09:34:19.268Z,87.70
2023-05-19T09:36:49.716Z,88.60
2023-05-19T09:39:18.119Z,90.00
2023-05-19T09:41:45.945Z,90.40
2023-05-19T09:44:14.655Z,89.80
2023-05-19T09:46:49.230Z,89.00
2023-05-19T09:49:24.872Z,90.60
2023-05-19T09:51:56.720Z,90.70
2023-05-19T09:54:24.656Z,90.20
2023-05-19T09:57:02.669Z,91.80
2023-05-19T09:59:33.461Z,91.00
2023-05-19T10:02:02.831Z,91.30
2023-05-19T10:04:31.498Z,91.40
2023-05-19T10:07:00.216Z,91.50
2023-05-19T10:09:30.616Z,92.70
2023-05-19T10:11:59.141Z,91.90
2023-05-19T10:14:28.140Z,91.90
2023-05-19T10:16:57.014Z,92.40
2023-05-19T10:19:27.813Z,92.90
2023-05-19T10:21:56.176Z,92.70
2023-05-19T10:24:23.278Z,92.40
2023-05-19T10:27:01.185Z,92.30
2023-05-19T10:29:31.522Z,91.90
2023-05-19T10:32:05.068Z,92.70
2023-05-19T10:35:02.307Z,92.10
2023-05-19T10:37:45.162Z,92.70
2023-05-19T10:40:36.320Z,92.00
2023-05-19T10:43:23.820Z,92.90
2023-05-19T10:45:55.695Z,93.10
2023-05-19T10:48:23.370Z,93.20
2023-05-19T10:50:55.107Z,93.00
2023-05-19T10:53:23.049Z,92.90
2023-05-19T10:55:56.242Z,92.40
2023-05-19T10:58:45.076Z,92.50
2023-05-19T11:01:24.694Z,91.80
2023-05-19T11:03:54.081Z,91.50
2023-05-19T11:06:36.328Z,90.90
2023-05-19T11:09:11.643Z,91.70
2023-05-19T11:11:52.579Z,91.80
2023-05-19T11:14:23.143Z,91.70
2023-05-19T11:16:52.902Z,91.30
2023-05-19T11:19:28.986Z,91.70
2023-05-19T11:21:57.644Z,91.70
2023-05-19T11:24:35.143Z,91.80
2023-05-19T11:27:31.466Z,93.00
2023-05-19T11:30:05.642Z,91.70
2023-05-19T11:32:35.149Z,92.30
2023-05-19T11:35:02.859Z,92.00
2023-05-19T11:37:33.083Z,92.10
2023-05-19T11:40:02.816Z,91.20
2023-05-19T11:42:30.006Z,92.30
2023-05-19T11:45:04.609Z,92.00
2023-05-19T11:47:42.598Z,91.40
2023-05-19T11:50:20.677Z,91.10
2023-05-19T11:52:48.165Z,90.60
2023-05-19T11:55:19.700Z,91.30
2023-05-19T11:58:06.764Z,91.10
2023-05-19T12:00:40.363Z,90.10
2023-05-19T12:03:09.308Z,90.50
2023-05-19T12:05:46.822Z,91.50
2023-05-19T12:08:14.904Z,91.20
2023-05-19T12:10:42.092Z,91.50
2023-05-19T12:13:10.142Z,91.60
2023-05-19T12:15:39.033Z,92.00
2023-05-19T12:18:08.685Z,92.00
2023-05-19T12:20:36.450Z,92.10
2023-05-19T12:23:04.166Z,91.90
2023-05-19T12:25:32.170Z,92.10
2023-05-19T12:28:05.560Z,92.30
2023-05-19T12:30:34.945Z,92.10
2023-05-19T12:33:03.173Z,91.10
2023-05-19T12:35:34.572Z,91.30
2023-05-19T12:38:06.312Z,90.50
2023-05-19T12:40:47.729Z,90.90
2023-05-19T12:43:22.461Z,90.80
2023-05-19T12:45:49.941Z,90.20
2023-05-19T12:48:24.190Z,91.20
2023-05-19T12:50:55.819Z,91.80
2023-05-19T12:53:23.115Z,91.20
2023-05-19T12:55:53.003Z,89.20
2023-05-19T12:58:21.705Z,90.40
2023-05-19T13:00:49.947Z,91.20
2023-05-19T13:03:39.924Z,88.50
2023-05-19T13:06:07.129Z,86.50
2023-05-19T13:08:34.227Z,86.70
2023-05-19T13:11:37.832Z,89.60
2023-05-19T13:14:04.868Z,86.60
2023-05-19T13:16:32.050Z,85.30
2023-05-19T13:18:59.652Z,84.30
2023-05-19T13:21:37.851Z,83.70
2023-05-19T13:24:05.428Z,84.00
2023-05-19T13:26:37.656Z,85.60
2023-05-19T13:29:04.837Z,89.20
2023-05-19T13:31:38.443Z,86.80
2023-05-19T13:34:05.747Z,86.80
2023-05-19T13:36:36.647Z,88.30
2023-05-19T13:39:03.990Z,88.40
2023-05-19T13:41:31.072Z,88.30
2023-05-19T13:44:02.089Z,88.40
2023-05-19T13:46:44.201Z,88.30
2023-05-19T13:49:12.172Z,90.10
2023-05-19T13:51:42.838Z,90.50
2023-05-19T13:54:10.284Z,86.80
2023-05-19T13:56:39.662Z,90.50
2023-05-19T13:59:06.680Z,89.00
2023-05-19T14:01:33.797Z,87.10
2023-05-19T14:04:02.097Z,89.40
2023-05-19T14:06:29.378Z,89.50
2023-05-19T14:08:56.609Z,87.30
2023-05-19T14:11:23.650Z,90.00
2023-05-19T14:13:52.685Z,90.00
2023-05-19T14:16:22.200Z,90.40
2023-05-19T14:18:49.748Z,89.20
2023-05-19T14:21:16.985Z,89.40
2023-05-19T14:23:44.138Z,88.10
2023-05-19T14:26:11.190Z,86.70
2023-05-19T14:28:38.437Z,87.30
2023-05-19T14:31:06.288Z,86.20
2023-05-19T14:33:35.677Z,87.50
2023-05-19T14:36:02.944Z,89.30
2023-05-19T14:38:33.328Z,89.30
2023-05-19T14:41:00.307Z,87.70
2023-05-19T14:43:27.407Z,87.00
2023-05-19T14:45:54.764Z,87.30
2023-05-19T14:48:22.240Z,85.80
2023-05-19T14:50:49.365Z,90.00
2023-05-19T14:53:16.863Z,87.90
2023-05-19T14:55:44.077Z,88.00
2023-05-19T14:58:26.957Z,88.30
2023-05-19T15:00:58.373Z,89.00
2023-05-19T15:03:28.690Z,86.70
2023-05-19T15:05:55.809Z,87.70
2023-05-19T15:08:23.538Z,86.90
2023-05-19T15:10:51.520Z,87.40
2023-05-19T15:13:19.213Z,88.00
2023-05-19T15:16:08.293Z,86.50
2023-05-19T15:18:42.775Z,84.50
2023-05-19T15:21:10.036Z,85.00
2023-05-19T15:23:37.063Z,85.30
2023-05-19T15:26:04.485Z,86.50
2023-05-19T15:28:32.302Z,83.80
2023-05-19T15:31:00.379Z,86.40
2023-05-19T15:33:27.423Z,89.30
2023-05-19T15:35:55.576Z,87.70
2023-05-19T15:38:22.687Z,88.80
2023-05-19T15:40:57.944Z,86.60
2023-05-19T15:43:25.465Z,89.70
2023-05-19T15:45:55.238Z,90.00
2023-05-19T15:48:22.476Z,90.40
2023-05-19T15:50:49.583Z,89.40
2023-05-19T15:53:23.557Z,89.50
2023-05-19T15:55:51.080Z,87.40
2023-05-19T15:58:18.284Z,89.70
2023-05-19T16:00:45.569Z,90.00
2023-05-19T16:03:12.900Z,90.00
2023-05-19T16:09:21.068Z,87.60
2023-05-19T16:11:48.288Z,90.00
2023-05-19T16:14:15.355Z,88.30
2023-05-19T16:16:43.040Z,85.40
2023-05-19T16:19:14.200Z,85.80
2023-05-19T16:21:41.397Z,85.90
2023-05-19T16:24:08.496Z,85.00
2023-05-19T16:26:37.327Z,85.10
2023-05-19T16:29:04.640Z,86.30
2023-05-19T16:31:31.898Z,87.90
2023-05-19T16:34:02.503Z,86.00
2023-05-19T16:36:29.582Z,87.60
2023-05-19T16:38:56.610Z,89.30
2023-05-19T16:41:30.813Z,87.80
2023-05-19T16:43:57.796Z,87.60
2023-05-19T16:46:24.897Z,89.80
2023-05-19T16:48:52.085Z,88.30
2023-05-19T16:51:19.139Z,89.60
2023-05-19T16:53:50.239Z,89.10
2023-05-19T16:56:17.286Z,89.10
2023-05-19T16:58:50.841Z,89.70
2023-05-19T17:01:17.994Z,89.60
2023-05-19T17:03:59.382Z,88.30
2023-05-19T17:06:26.511Z,88.60
2023-05-19T17:08:53.555Z,89.40
2023-05-19T17:11:21.929Z,90.20
2023-05-19T17:13:48.948Z,90.60
2023-05-19T17:16:35.866Z,89.10
2023-05-19T17:19:05.182Z,89.80
2023-05-19T17:21:32.495Z,87.70
2023-05-19T17:23:59.612Z,88.10
2023-05-19T17:26:34.801Z,88.80
2023-05-19T17:29:01.864Z,88.70
2023-05-19T17:31:28.927Z,90.70
2023-05-19T17:33:56.057Z,90.90
2023-05-19T17:36:23.153Z,91.20
2023-05-19T17:38:50.148Z,91.00
2023-05-19T17:41:19.275Z,91.00
2023-05-19T17:43:46.264Z,91.00
2023-05-19T17:46:13.420Z,91.10
2023-05-19T17:48:42.505Z,91.50
2023-05-19T17:51:09.606Z,91.90
2023-05-19T17:53:38.319Z,91.60
2023-05-19T17:56:09.010Z,91.50
2023-05-19T17:58:36.503Z,92.10
2023-05-19T18:01:03.788Z,92.00
2023-05-19T18:03:31.584Z,92.00
2023-05-19T18:05:59.426Z,92.80
2023-05-19T18:08:27.978Z,92.30
2023-05-19T18:10:57.261Z,92.20
2023-05-19T18:13:24.290Z,92.30
2023-05-19T18:15:52.845Z,93.00
2023-05-19T18:18:19.936Z,92.70
2023-05-19T18:20:47.715Z,93.00
2023-05-19T18:23:14.821Z,93.60
2023-05-19T18:25:48.889Z,93.10
2023-05-19T18:28:15.939Z,92.80
2023-05-19T18:30:44.263Z,93.50
2023-05-19T18:33:11.418Z,93.60
2023-05-19T18:35:38.547Z,93.80
2023-05-19T18:38:05.865Z,94.10
2023-05-19T18:40:33.318Z,94.30
2023-05-19T18:43:00.753Z,93.90
2023-05-19T18:45:29.877Z,94.50
2023-05-19T18:47:57.116Z,94.70
2023-05-19T18:50:30.189Z,94.40
2023-05-19T18:52:57.242Z,95.00
2023-05-19T18:55:24.291Z,95.10
2023-05-19T18:57:54.634Z,95.20
2023-05-19T19:00:21.664Z,95.30
2023-05-19T19:02:49.648Z,95.50
2023-05-19T19:05:18.719Z,95.70
2023-05-19T19:07:45.744Z,95.30
2023-05-19T19:10:12.969Z,95.70
2023-05-19T19:12:40.084Z,96.00
2023-05-19T19:15:11.030Z,96.20
2023-05-19T19:17:42.247Z,96.10
2023-05-19T19:20:09.872Z,96.40
2023-05-19T19:22:37.078Z,96.30
2023-05-19T19:25:04.403Z,96.40
2023-05-19T19:27:31.594Z,96.70
2023-05-19T19:30:02.841Z,96.90
2023-05-19T19:32:31.587Z,96.80
2023-05-19T19:34:58.942Z,97.00
2023-05-19T19:37:26.182Z,96.90
2023-05-19T19:39:53.337Z,97.10
2023-05-19T19:42:20.438Z,97.30
2023-05-19T19:44:48.553Z,97.30
2023-05-19T19:47:15.724Z,97.40
2023-05-19T19:49:42.796Z,97.50
2023-05-19T19:52:09.849Z,97.70
2023-05-19T19:54:37.111Z,98.00
2023-05-19T19:57:05.585Z,98.10
2023-05-19T19:59:32.658Z,98.30
2023-05-19T20:02:02.433Z,98.50
2023-05-19T20:04:29.714Z,98.70
2023-05-19T20:06:56.891Z,98.50
2023-05-19T20:09:24.014Z,98.60
2023-05-19T20:11:51.176Z,98.70
2023-05-19T20:14:20.236Z,98.70
2023-05-19T20:16:47.346Z,98.70
2023-05-19T20:19:14.539Z,99.00
2023-05-19T20:21:44.156Z,99.00
2023-05-19T20:24:11.232Z,99.00
2023-05-19T20:26:39.354Z,99.10
2023-05-19T20:29:06.419Z,99.00
2023-05-19T20:31:33.557Z,99.10
2023-05-19T20:34:01.779Z,99.10
2023-05-19T20:36:29.055Z,99.20
2023-05-19T20:38:56.127Z,99.20
2023-05-19T20:41:23.731Z,99.30
2023-05-19T20:43:55.292Z,99.40
2023-05-19T20:46:22.431Z,99.40
2023-05-19T20:48:49.619Z,99.60
2023-05-19T20:51:16.628Z,99.50
2023-05-19T20:53:43.760Z,99.70
2023-05-19T20:56:11.151Z,99.60
2023-05-19T20:58:38.281Z,99.80
2023-05-19T21:01:05.632Z,99.90
2023-05-19T21:03:33.889Z,99.90
2023-05-19T21:06:01.184Z,99.90
2023-05-19T21:08:28.323Z,99.90
2023-05-19T21:10:59.587Z,99.90
2023-05-19T21:13:26.631Z,99.90
2023-05-19T21:15:53.683Z,99.90
2023-05-19T21:18:20.717Z,99.90
2023-05-19T21:20:47.811Z,99.90
2023-05-19T21:23:14.832Z,99.90
2023-05-19T21:26:04.983Z,99.90
2023-05-19T21:28:31.978Z,99.90
2023-05-19T21:30:59.154Z,99.90
2023-05-19T21:33:31.551Z,99.90
2023-05-19T21:35:59.380Z,99.90
2023-05-19T21:38:30.717Z,99.90
2023-05-19T21:40:57.741Z,99.90
2023-05-19T21:43:36.738Z,99.90
2023-05-19T21:46:03.888Z,99.90
2023-05-19T21:48:49.152Z,99.90
2023-05-19T21:51:16.417Z,99.90
2023-05-19T21:53:43.465Z,99.90
2023-05-19T21:56:12.562Z,99.90
2023-05-19T21:58:39.687Z,99.90
2023-05-19T22:01:06.785Z,99.90
2023-05-19T22:03:42.285Z,99.90
2023-05-19T22:06:09.391Z,99.90
2023-05-19T22:08:36.631Z,99.90
2023-05-19T22:11:10.034Z,99.90
2023-05-19T22:13:41.253Z,99.90
2023-05-19T22:16:08.707Z,99.90
2023-05-19T22:18:35.870Z,99.90
2023-05-19T22:21:02.953Z,99.90
2023-05-19T22:23:30.142Z,99.90
2023-05-19T22:25:57.232Z,99.90
2023-05-19T22:28:32.598Z,99.90
2023-05-19T22:30:59.619Z,99.90
2023-05-19T22:33:26.715Z,99.90
2023-05-19T22:35:56.138Z,99.90
2023-05-19T22:38:23.155Z,99.90
2023-05-19T22:40:50.194Z,99.90
2023-05-19T22:43:35.855Z,99.90
2023-05-19T22:46:02.946Z,99.90
2023-05-19T22:48:29.958Z,99.90
2023-05-19T22:51:00.081Z,99.90
2023-05-19T22:53:27.178Z,99.90
2023-05-19T22:55:54.258Z,99.90
2023-05-19T22:58:22.275Z,99.90
2023-05-19T23:00:49.328Z,99.90
2023-05-19T23:03:16.469Z,99.90
2023-05-19T23:05:47.720Z,99.90
2023-05-19T23:08:14.723Z,99.90
2023-05-19T23:10:41.752Z,99.90
2023-05-19T23:13:10.431Z,99.90
2023-05-19T23:15:37.644Z,99.90
2023-05-19T23:18:12.053Z,99.90
2023-05-19T23:20:39.115Z,99.90
2023-05-19T23:23:07.285Z,99.90
2023-05-19T23:25:34.523Z,99.90
2023-05-19T23:28:01.819Z,99.90
2023-05-19T23:30:42.199Z,99.90
2023-05-19T23:33:09.325Z,99.90
2023-05-19T23:35:39.706Z,99.90
2023-05-19T23:38:06.790Z,99.90
2023-05-19T23:40:33.798Z,99.90
2023-05-19T23:43:06.307Z,99.90
2023-05-19T23:45:33.873Z,99.90
2023-05-19T23:48:03.109Z,99.90
2023-05-19T23:50:30.300Z,99.90
2023-05-19T23:52:57.328Z,99.90
2023-05-19T23:55:27.578Z,99.90
2023-05-19T23:57:54.678Z,99.90
